• Join FlightAware (Why Join?)
  • Login
  • US Flag 
01:14PM EDT


 

Airport Tracker/Info


-or-


 

Live Flight TrackerFlight Track Log ✈ NKS313 ✈ 25-May-2013 ✈ KDTW - KDFW

Flight Track Log - Related Links

Times and Time Zones

All times are in EDT time to prevent confusion due to time zone crossing. See the NKS313 flight status page for this flight to view local times or setup timezone preferences in your user account.

Time Position Orientation Groundspeed Altitude Reporting Facility
EDT Latitude Longitude Course Direction KTS MPH feet Rate Location/Type
10:13PM 42.2850 -83.1610 129° Southeast 287 330 7,300  Level FlightAware
10:14PM 42.2400 -83.1080 139° Southeast 289 333 8,100 2,100 Climbing FlightAware
10:15PM 42.2320 -83.1530 257° West 299 344 9,800 1,500 Climbing FlightAware
10:16PM 42.1360 -83.2400 214° Southwest 335 386 11,000 4,800 Climbing FlightAware
10:17PM 41.8190 -83.4690 208° Southwest 411 473 21,100 8,580 Climbing FlightAware
10:18PM 41.7460 -83.5180 207° Southwest 419 482 22,600 1,920 Climbing FlightAware
10:18PM 41.6710 -83.5690 207° Southwest 428 493 23,900 1,800 Climbing FlightAware
10:19PM 41.5770 -83.6330 207° Southwest 434 499 25,500 1,680 Climbing FlightAware
10:20PM 41.4970 -83.6880 207° Southwest 443 510 26,700 1,500 Climbing FlightAware
10:21PM 41.4140 -83.7440 207° Southwest 453 521 27,800 1,380 Climbing FlightAware
10:21PM 41.3380 -83.7960 207° Southwest 462 532 28,700 1,740 Climbing FlightAware
10:22PM 41.2570 -83.8500 207° Southwest 453 521 30,200 1,380 Climbing FlightAware
10:23PM 41.1830 -83.9010 207° Southwest 466 536 30,600 900 Climbing FlightAware
10:24PM 41.0960 -83.9590 207° Southwest 471 542 31,500 1,380 Climbing FlightAware
10:24PM 41.0210 -84.0090 207° Southwest 462 532 32,600 1,500 Climbing FlightAware
10:25PM 40.9480 -84.0580 207° Southwest 458 527 33,500 1,320 Climbing FlightAware
10:26PM 40.8570 -84.1190 207° Southwest 458 527 34,500 1,440 Climbing FlightAware
10:26PM 40.7770 -84.1710 206° Southwest 450 518 35,700 1,560 Climbing FlightAware
10:27PM 40.7040 -84.2200 207° Southwest 442 509 36,700 1,320 Climbing FlightAware
10:28PM 40.6240 -84.2730 207° Southwest 438 504 37,600 900 Climbing FlightAware
10:28PM 40.5480 -84.3240 207° Southwest 442 509 38,000 240 Climbing FlightAware
10:29PM 40.4690 -84.3760 207° Southwest 437 503 38,000  Level FlightAware
10:30PM 40.3960 -84.4230 206° Southwest 435 501 38,000  Level FlightAware
10:31PM 40.2490 -84.5190 206° Southwest 436 502 38,000  Level FlightAware
10:32PM 40.1660 -84.5730 206° Southwest 439 505 38,000  Level FlightAware
10:33PM 40.0970 -84.6180 207° Southwest 439 505 38,000  Level FlightAware
10:33PM 40.0150 -84.6710 206° Southwest 440 506 38,000  Level FlightAware
10:34PM 39.9380 -84.7210 206° Southwest 440 506 38,000  Level FlightAware
10:35PM 39.8610 -84.7700 206° Southwest 440 506 38,000  Level FlightAware
10:35PM 39.7930 -84.8220 210° Southwest 429 494 38,000  Level FlightAware
10:36PM 39.7260 -84.8940 220° Southwest 418 481 38,000  Level FlightAware
10:37PM 39.6730 -84.9710 228° Southwest 408 470 38,000  Level FlightAware
10:38PM 39.6250 -85.0490 231° Southwest 408 470 38,000  Level FlightAware
10:38PM 39.5750 -85.1300 231° Southwest 407 468 38,000  Level FlightAware
10:39PM 39.5260 -85.2080 231° Southwest 407 468 38,000  Level FlightAware
10:40PM 39.4740 -85.2920 231° Southwest 406 467 38,000  Level FlightAware
10:40PM 39.4270 -85.3680 231° Southwest 405 466 38,000  Level FlightAware
10:41PM 39.3770 -85.4470 231° Southwest 404 465 38,000  Level FlightAware
10:42PM 39.3280 -85.5250 231° Southwest 405 466 38,000  Level FlightAware
10:42PM 39.2750 -85.6080 230° Southwest 407 468 38,000  Level FlightAware
10:43PM 39.2300 -85.6790 231° Southwest 408 470 38,000  Level FlightAware
10:44PM 39.1750 -85.7660 231° Southwest 408 470 38,000  Level FlightAware
10:45PM 39.1280 -85.8400 231° Southwest 408 470 38,000  Level FlightAware
10:45PM 39.0750 -85.9240 231° Southwest 407 468 38,000  Level FlightAware
10:46PM 39.0270 -85.9990 231° Southwest 405 466 38,000  Level FlightAware
10:47PM 38.9770 -86.0770 231° Southwest 405 466 38,000  Level FlightAware
10:47PM 38.9280 -86.1540 231° Southwest 406 467 38,000  Level FlightAware
10:48PM 38.8760 -86.2350 231° Southwest 405 466 38,000  Level FlightAware
10:49PM 38.8370 -86.2950 230° Southwest 404 465 38,000  Level FlightAware
10:49PM 38.7750 -86.3920 231° Southwest 404 465 38,000  Level FlightAware
10:50PM 38.7320 -86.4570 230° Southwest 405 466 38,000  Level FlightAware
10:51PM 38.6790 -86.5390 230° Southwest 406 467 38,000  Level FlightAware
10:52PM 38.6240 -86.6240 230° Southwest 404 465 38,000  Level FlightAware
10:52PM 38.5760 -86.6980 230° Southwest 406 467 38,000  Level FlightAware
10:53PM 38.5270 -86.7720 230° Southwest 405 466 38,000  Level FlightAware
10:54PM 38.4730 -86.8550 230° Southwest 407 468 38,000  Level FlightAware
10:54PM 38.4240 -86.9290 230° Southwest 409 471 38,000  Level FlightAware
10:55PM 38.3830 -86.9920 230° Southwest 411 473 38,000  Level FlightAware
10:56PM 38.3190 -87.0880 230° Southwest 413 475 38,000  Level FlightAware
10:56PM 38.2690 -87.1630 230° Southwest 415 478 38,000  Level FlightAware
10:57PM 38.2190 -87.2390 230° Southwest 416 479 38,000  Level FlightAware
10:58PM 38.1660 -87.3190 230° Southwest 417 480 38,000  Level FlightAware
10:59PM 38.1110 -87.4020 230° Southwest 417 480 38,000  Level FlightAware
10:59PM 38.0600 -87.4780 230° Southwest 416 479 38,000  Level FlightAware
11:00PM 38.0060 -87.5580 229° Southwest 414 476 38,000  Level FlightAware
11:01PM 37.9560 -87.6340 230° Southwest 414 476 38,000  Level FlightAware
11:01PM 37.9060 -87.7070 229° Southwest 412 474 38,000  Level FlightAware
11:02PM 37.8530 -87.7870 230° Southwest 412 474 38,000  Level FlightAware
11:03PM 37.8000 -87.8640 229° Southwest 411 473 38,000 -120 Level FlightAware
11:03PM 37.7460 -87.9440 230° Southwest 412 474 37,900  Descending FlightAware
11:04PM 37.6970 -88.0160 229° Southwest 415 478 38,000 60 Climbing FlightAware
11:05PM 37.6410 -88.0990 230° Southwest 418 481 38,000  Level FlightAware
11:06PM 37.5900 -88.1730 229° Southwest 420 483 38,000 60 Level FlightAware
11:06PM 37.5340 -88.2550 229° Southwest 419 482 38,100  Climbing FlightAware
11:07PM 37.4850 -88.3270 229° Southwest 419 482 38,000 -120 Descending FlightAware
11:08PM 37.4360 -88.3980 229° Southwest 418 481 38,000  Level FlightAware
11:08PM 37.3780 -88.4820 229° Southwest 417 480 38,000  Level FlightAware
11:09PM 37.3250 -88.5590 229° Southwest 416 479 38,000  Level FlightAware
11:10PM 37.2690 -88.6390 229° Southwest 416 479 38,000  Level FlightAware
11:10PM 37.2170 -88.7140 229° Southwest 416 479 38,000  Level FlightAware
11:11PM 37.1560 -88.8020 229° Southwest 415 478 38,000  Level FlightAware
11:12PM 37.0810 -88.9080 228° Southwest 415 478 38,000  Level FlightAware
11:13PM 37.0070 -89.0150 229° Southwest 415 478 38,000  Level FlightAware
11:14PM 36.9640 -89.0770 229° Southwest 415 478 38,000  Level FlightAware
11:15PM 36.9080 -89.1560 228° Southwest 415 478 38,000  Level FlightAware
11:15PM 36.8670 -89.2130 228° Southwest 415 478 38,000  Level FlightAware
11:16PM 36.8050 -89.3010 229° Southwest 416 479 38,000  Level FlightAware
11:17PM 36.7480 -89.3820 229° Southwest 416 479 38,000  Level FlightAware
11:17PM 36.6940 -89.4580 228° Southwest 416 479 38,000  Level FlightAware
11:18PM 36.6360 -89.5400 229° Southwest 415 478 38,000  Level FlightAware
11:19PM 36.5900 -89.6050 229° Southwest 414 476 38,000  Level FlightAware
11:19PM 36.5360 -89.6790 228° Southwest 414 476 38,000  Level FlightAware
11:20PM 36.4960 -89.7340 228° Southwest 414 476 38,000  Level FlightAware
11:21PM 36.4440 -89.8060 228° Southwest 414 476 38,000  Level FlightAware
11:22PM 36.4050 -89.8610 229° Southwest 414 476 38,000  Level FlightAware
11:22PM 36.3160 -89.9850 228° Southwest 415 478 38,000  Level FlightAware
11:23PM 36.2660 -90.0530 228° Southwest 416 479 38,000  Level FlightAware
11:24PM 36.2250 -90.1060 226° Southwest 416 479 38,000  Level FlightAware
11:24PM 36.1710 -90.1790 228° Southwest 416 479 38,000  Level FlightAware
11:25PM 36.1020 -90.2810 230° Southwest 417 480 38,000  Level FlightAware
11:26PM 36.0600 -90.3380 228° Southwest 417 480 38,000  Level FlightAware
11:26PM 35.9900 -90.4340 228° Southwest 417 480 38,000  Level FlightAware
11:27PM 35.9330 -90.5110 228° Southwest 418 481 38,000  Level FlightAware
11:28PM 35.8980 -90.5600 229° Southwest 418 481 38,000  Level FlightAware
11:29PM 35.8300 -90.6510 227° Southwest 417 480 38,000  Level FlightAware
11:30PM 35.7440 -90.7670 228° Southwest 417 480 38,000  Level FlightAware
11:30PM 35.7000 -90.8240 226° Southwest 417 480 38,000  Level FlightAware
11:31PM 35.6290 -90.9240 229° Southwest 417 480 38,000  Level FlightAware
11:32PM 35.5780 -90.9920 227° Southwest 417 480 38,000  Level FlightAware
11:33PM 35.5160 -91.0760 228° Southwest 419 482 38,000  Level FlightAware
11:33PM 35.4560 -91.1550 227° Southwest 418 481 38,000  Level FlightAware
11:34PM 35.4020 -91.2260 227° Southwest 418 481 38,000  Level FlightAware
11:35PM 35.3390 -91.3120 228° Southwest 411 473 38,000  Level FlightAware
11:35PM 35.2950 -91.3690 227° Southwest 411 473 38,000  Level FlightAware
11:36PM 35.2370 -91.4460 227° Southwest 408 470 38,000  Level FlightAware
11:37PM 35.1850 -91.5150 227° Southwest 408 470 38,000  Level FlightAware
11:38PM 35.1460 -91.5660 227° Southwest 408 470 38,000  Level FlightAware
11:38PM 35.0760 -91.6590 227° Southwest 409 471 38,000  Level FlightAware
11:39PM 35.0120 -91.7440 227° Southwest 411 473 38,000  Level FlightAware
11:40PM 34.9390 -91.8390 227° Southwest 412 474 38,000  Level FlightAware
11:41PM 34.8900 -91.9030 227° Southwest 412 474 38,000  Level FlightAware
11:41PM 34.8500 -91.9550 227° Southwest 412 474 38,000  Level FlightAware
11:42PM 34.7970 -92.0240 227° Southwest 412 474 38,000  Level FlightAware
11:43PM 34.7570 -92.0760 227° Southwest 412 474 38,000  Level FlightAware
11:44PM 34.6890 -92.1660 227° Southwest 412 474 38,000  Level FlightAware
11:44PM 34.6480 -92.2190 227° Southwest 412 474 38,000  Level FlightAware
11:45PM 34.6080 -92.2710 227° Southwest 412 474 38,000  Level FlightAware
11:46PM 34.5540 -92.3410 227° Southwest 412 474 38,000  Level FlightAware
11:46PM 34.5130 -92.3950 227° Southwest 412 474 38,000  Level FlightAware
11:47PM 34.4600 -92.4640 227° Southwest 412 474 38,000  Level FlightAware
11:48PM 34.4200 -92.5150 226° Southwest 412 474 38,000  Level FlightAware
11:49PM 34.3660 -92.5860 227° Southwest 412 474 38,000  Level FlightAware
11:49PM 34.3270 -92.6370 227° Southwest 412 474 38,000  Level FlightAware
11:50PM 34.2810 -92.6960 227° Southwest 412 474 38,000  Level FlightAware
11:51PM 34.4140 -93.1700 289° West 394 453 38,000  Level FlightAware
11:52PM 34.3940 -93.2430 252° West 394 453 38,000  Level FlightAware
11:52PM 34.3750 -93.3080 251° West 394 453 38,000  Level FlightAware
11:53PM 34.3510 -93.3930 251° West 394 453 38,000  Level FlightAware
11:54PM 34.3100 -93.5500 252° West 395 455 38,000  Level FlightAware
11:55PM 34.2910 -93.6160 251° West 395 455 38,000  Level FlightAware
11:55PM 34.2590 -93.7100 248° West 400 460 38,000  Level FlightAware
11:56PM 34.2300 -93.8020 249° West 400 460 38,000  Level FlightAware
11:57PM 34.2100 -93.8660 249° West 400 460 38,000  Level FlightAware
11:58PM 34.1830 -93.9510 249° West 400 460 38,000  Level FlightAware
11:58PM 34.1620 -94.0150 248° West 400 460 38,000  Level FlightAware
11:59PM 34.1100 -94.1930 251° West 409 471 38,000  Level FlightAware
12:00AM 34.0820 -94.2850 250° West 413 475 38,000  Level FlightAware
12:01AM 34.0520 -94.3760 248° West 415 478 38,000  Level FlightAware
12:01AM 34.0100 -94.4750 243° Southwest 415 478 38,000 -120 Level FlightAware
12:02AM 33.9770 -94.5540 243° Southwest 417 480 37,900 -420 Descending FlightAware
12:03AM 33.9300 -94.6660 243° Southwest 420 483 37,400 -360 Descending FlightAware
12:04AM 33.9030 -94.7300 243° Southwest 420 483 37,400 -1,320 Level FlightAware
12:04AM 33.8540 -94.8470 243° Southwest 424 488 35,600 -1,680 Descending FlightAware
12:05AM 33.8140 -94.9400 243° Southwest 428 493 34,900 -1,020 Descending FlightAware
12:06AM 33.7780 -95.0250 243° Southwest 430 495 34,200 -1,200 Descending FlightAware
12:07AM 33.7370 -95.1210 243° Southwest 432 497 33,200 -1,920 Descending FlightAware
12:07AM 33.7000 -95.2070 243° Southwest 426 490 31,500 -2,400 Descending FlightAware
12:08AM 33.6610 -95.2990 243° Southwest 420 483 29,800 -2,340 Descending FlightAware
12:09AM 33.6250 -95.3820 243° Southwest 415 478 28,300 -2,340 Descending FlightAware
12:09AM 33.5890 -95.4660 243° Southwest 408 470 26,700 -2,280 Descending FlightAware
12:10AM 33.5510 -95.5530 242° Southwest 402 463 25,100 -2,220 Descending FlightAware
12:11AM 33.5040 -95.6640 243° Southwest 394 453 23,000 -2,220 Descending FlightAware
12:11AM 33.4840 -95.7100 242° Southwest 388 447 22,200 -2,100 Descending FlightAware
12:12AM 33.4470 -95.7930 242° Southwest 378 435 20,600 -2,160 Descending FlightAware
12:13AM 33.4150 -95.8660 242° Southwest 370 426 19,200 -2,340 Descending FlightAware
12:14AM 33.3790 -95.9490 243° Southwest 368 423 17,400 -2,100 Descending FlightAware
12:14AM 33.3480 -96.0200 242° Southwest 353 406 16,300 -1,860 Descending FlightAware
12:15AM 33.3170 -96.0920 243° Southwest 348 400 14,900 -1,860 Descending FlightAware
12:16AM 33.2860 -96.1620 242° Southwest 335 386 13,700 -1,860 Descending FlightAware
12:16AM 33.2560 -96.2310 243° Southwest 328 377 12,300 -1,980 Descending FlightAware
12:17AM 33.2270 -96.2970 242° Southwest 326 375 11,000 -1,020 Descending FlightAware
12:18AM 33.2050 -96.3710 250° West 324 373 10,900 -480 Descending FlightAware
12:18AM 33.1890 -96.4350 253° West 308 354 10,400 -840 Descending FlightAware
12:19AM 33.1720 -96.5040 254° West 283 326 9,800 -1,080 Descending FlightAware
12:20AM 33.1620 -96.5460 254° West 281 323 9,100 -1,500 Descending FlightAware
12:20AM 33.1570 -96.5660 253° West 279 321 8,800 -1,380 Descending FlightAware
12:20AM 33.1460 -96.6090 253° West 269 310 8,100 -1,440 Descending FlightAware
12:21AM 33.1410 -96.6260 251° West 269 310 7,800 -1,500 Descending FlightAware
12:21AM 33.1320 -96.6670 255° West 268 308 7,100 -1,560 Descending FlightAware
12:21AM 33.1260 -96.6880 251° West 266 306 6,700 -1,560 Descending FlightAware
12:22AM 33.1170 -96.7270 255° West 263 303 6,000 -1,500 Descending FlightAware
12:22AM 33.1120 -96.7440 251° West 263 303 5,700 -1,500 Descending FlightAware
12:22AM 33.1020 -96.7830 253° West 259 298 5,000 -1,200 Descending FlightAware
12:23AM 33.0930 -96.8210 254° West 261 300 4,600 -900 Descending FlightAware
12:23AM 33.0830 -96.8620 254° West 257 296 4,200 -840 Descending FlightAware
12:24AM 33.0730 -96.9000 253° West 253 291 3,800 -1,020 Descending FlightAware
12:24AM 33.0710 -96.9110 258° West 252 290 3,600 -1,500 Descending FlightAware
12:24AM 33.0610 -96.9480 252° West 252 290 2,900 -720 Descending FlightAware
12:25AM 33.0520 -96.9870 255° West 222 255 2,900  Level FlightAware
12:25AM 33.0430 -97.0180 251° West 188 216 2,900 -300 Level FlightAware
12:26AM 33.0350 -97.0250 216° Southwest 164 189 2,700 -900 Descending FlightAware
12:26AM 33.0240 -97.0290 197° South 159 183 2,500 -840 Descending FlightAware
12:26AM 33.0040 -97.0300 182° South 152 175 2,100 -900 Descending FlightAware
12:27AM 32.9850 -97.0300 180° South 131 151 1,700 -780 Descending FlightAware
12:27AM 32.9690 -97.0300 180° South 118 136 1,400 -480 Descending FlightAware
12:28AM 32.9550 -97.0300 180° South 121 139 1,300 -120 Descending FlightAware
12:28AM 32.9420 -97.0300 180° South 121 139 1,300  Level FlightAware
12:36AM 32.8968 -97.0380 210° Southwest  Level Estimated
12:37AM 32.8968 -97.0380 210° Southwest  Level Estimated